UTA296 UUWW-USRR
Flight info
| Callsign | UTA296 |
|---|---|
| Flight time | 2h 43m |
| Altitude | 37000 |
| Route | OLMUN3D OLMUN T629 IPSIL T830 LAMGU N604 HMN L870 STELA KOVER1L |
| Aircraft | B738/M-SDE2E3FGHIRWXY/LB1 |
Departure
| Time | 2026-04-25 09:27 |
|---|---|
| Airport | Vnukovo International Airport (UUWW) |
Arrival
| Time | 2026-04-25 12:10 |
|---|---|
| Airport | Surgut International Airport (USRR) |
| Time | Latitude | Longitude | Altitude | Speed | Heading |
|---|---|---|---|---|---|
| 2026-04-25 09:02 | 55.60005 | 37.28098 | 679 ft | 0 kts | 4° |
| 2026-04-25 09:21 | 55.60010 | 37.28099 | 679 ft | 1 kts | 4° |
| 2026-04-25 09:21 | 55.60018 | 37.28100 | 679 ft | 1 kts | 4° |
| 2026-04-25 09:21 | 55.60032 | 37.28102 | 679 ft | 3 kts | 8° |
| 2026-04-25 09:22 | 55.60056 | 37.28115 | 679 ft | 4 kts | 25° |
| 2026-04-25 09:22 | 55.60073 | 37.28166 | 676 ft | 6 kts | 78° |
| 2026-04-25 09:22 | 55.60080 | 37.28250 | 679 ft | 8 kts | 84° |
| 2026-04-25 09:22 | 55.60086 | 37.28356 | 678 ft | 10 kts | 84° |
| 2026-04-25 09:23 | 55.60113 | 37.28469 | 676 ft | 11 kts | 52° |
| 2026-04-25 09:23 | 55.60168 | 37.28572 | 677 ft | 12 kts | 47° |
| 2026-04-25 09:23 | 55.60209 | 37.28690 | 678 ft | 12 kts | 94° |
| 2026-04-25 09:23 | 55.60169 | 37.28782 | 677 ft | 9 kts | 131° |
| 2026-04-25 09:24 | 55.60125 | 37.28852 | 675 ft | 8 kts | 145° |
| 2026-04-25 09:24 | 55.60072 | 37.28886 | 678 ft | 8 kts | 166° |
| 2026-04-25 09:24 | 55.60019 | 37.28909 | 682 ft | 8 kts | 166° |
| 2026-04-25 09:24 | 55.59967 | 37.28931 | 679 ft | 8 kts | 166° |
| 2026-04-25 09:25 | 55.59916 | 37.28954 | 681 ft | 8 kts | 166° |
| 2026-04-25 09:25 | 55.59864 | 37.28976 | 681 ft | 8 kts | 166° |
| 2026-04-25 09:25 | 55.59813 | 37.28983 | 684 ft | 8 kts | 193° |
| 2026-04-25 09:25 | 55.59776 | 37.28910 | 686 ft | 9 kts | 244° |
| 2026-04-25 09:26 | 55.59768 | 37.28874 | 686 ft | 8 kts | 248° |
| 2026-04-25 09:26 | 55.59658 | 37.28385 | 682 ft | 77 kts | 248° |
| 2026-04-25 09:26 | 55.59382 | 37.27156 | 667 ft | 136 kts | 249° |
| 2026-04-25 09:26 | 55.58971 | 37.25379 | 785 ft | 170 kts | 250° |
| 2026-04-25 09:27 | 55.58500 | 37.23422 | 1298 ft | 179 kts | 245° |
| 2026-04-25 09:27 | 55.57719 | 37.21661 | 1917 ft | 186 kts | 225° |
| 2026-04-25 09:27 | 55.56889 | 37.19936 | 2429 ft | 192 kts | 239° |
| 2026-04-25 09:27 | 55.56122 | 37.17825 | 2577 ft | 211 kts | 239° |
| 2026-04-25 09:28 | 55.55269 | 37.15646 | 2825 ft | 221 kts | 239° |
| 2026-04-25 09:28 | 55.54790 | 37.13120 | 3241 ft | 219 kts | 270° |
| 2026-04-25 09:28 | 55.54808 | 37.10521 | 3696 ft | 221 kts | 271° |
| 2026-04-25 09:28 | 55.54816 | 37.07798 | 4273 ft | 221 kts | 273° |
| 2026-04-25 09:29 | 55.55207 | 37.05202 | 4923 ft | 222 kts | 302° |
| 2026-04-25 09:29 | 55.56327 | 37.03305 | 5415 ft | 232 kts | 330° |
| 2026-04-25 09:29 | 55.57908 | 37.02569 | 5902 ft | 242 kts | 355° |
| 2026-04-25 09:29 | 55.59605 | 37.02548 | 6504 ft | 245 kts | 357° |
| 2026-04-25 09:30 | 55.61320 | 37.02600 | 7125 ft | 249 kts | 4° |
| 2026-04-25 09:30 | 55.62953 | 37.03696 | 7701 ft | 259 kts | 35° |
| 2026-04-25 09:30 | 55.64098 | 37.06226 | 8077 ft | 279 kts | 67° |
| 2026-04-25 09:30 | 55.64385 | 37.09644 | 8459 ft | 292 kts | 90° |
| 2026-04-25 09:31 | 55.64350 | 37.13275 | 9039 ft | 297 kts | 90° |
| 2026-04-25 09:31 | 55.64311 | 37.16948 | 9688 ft | 299 kts | 90° |
| 2026-04-25 09:31 | 55.64206 | 37.20657 | 10274 ft | 306 kts | 100° |
| 2026-04-25 09:31 | 55.63579 | 37.24285 | 10892 ft | 310 kts | 109° |
| 2026-04-25 09:32 | 55.62866 | 37.27913 | 11466 ft | 316 kts | 108° |
| 2026-04-25 09:32 | 55.62160 | 37.31644 | 12048 ft | 321 kts | 107° |
| 2026-04-25 09:32 | 55.61463 | 37.35407 | 12729 ft | 323 kts | 106° |
| 2026-04-25 09:32 | 55.60763 | 37.39219 | 13352 ft | 328 kts | 106° |
| 2026-04-25 09:33 | 55.60056 | 37.43076 | 13973 ft | 332 kts | 106° |
| 2026-04-25 09:33 | 55.59342 | 37.46970 | 14607 ft | 335 kts | 106° |
| 2026-04-25 09:33 | 55.58617 | 37.50914 | 15257 ft | 339 kts | 106° |
| 2026-04-25 09:33 | 55.57883 | 37.54894 | 15874 ft | 342 kts | 106° |
| 2026-04-25 09:34 | 55.57241 | 37.58960 | 16442 ft | 345 kts | 93° |
| 2026-04-25 09:34 | 55.57411 | 37.63125 | 17035 ft | 339 kts | 70° |
| 2026-04-25 09:34 | 55.58354 | 37.66883 | 17640 ft | 333 kts | 54° |
| 2026-04-25 09:34 | 55.59543 | 37.70417 | 18210 ft | 336 kts | 53° |
| 2026-04-25 09:35 | 55.60762 | 37.73978 | 18755 ft | 340 kts | 53° |
| 2026-04-25 09:35 | 55.61978 | 37.77600 | 19311 ft | 344 kts | 54° |
| 2026-04-25 09:35 | 55.63190 | 37.81265 | 19914 ft | 346 kts | 54° |
| 2026-04-25 09:35 | 55.64319 | 37.85059 | 20415 ft | 356 kts | 66° |
| 2026-04-25 09:36 | 55.64667 | 37.89482 | 20896 ft | 371 kts | 92° |
| 2026-04-25 09:36 | 55.64206 | 37.94006 | 21451 ft | 376 kts | 100° |
| 2026-04-25 09:36 | 55.63587 | 37.98535 | 21911 ft | 381 kts | 101° |
| 2026-04-25 09:36 | 55.62954 | 38.03105 | 22370 ft | 385 kts | 101° |
| 2026-04-25 09:37 | 55.62338 | 38.07731 | 22835 ft | 388 kts | 100° |
| 2026-04-25 09:37 | 55.61733 | 38.12402 | 23307 ft | 391 kts | 99° |
| 2026-04-25 09:37 | 55.61131 | 38.17110 | 23663 ft | 397 kts | 99° |
| 2026-04-25 09:37 | 55.60514 | 38.21981 | 23734 ft | 412 kts | 99° |
| 2026-04-25 09:38 | 55.59880 | 38.26987 | 23916 ft | 422 kts | 99° |
| 2026-04-25 09:38 | 55.59230 | 38.32087 | 24279 ft | 427 kts | 99° |
| 2026-04-25 09:38 | 55.58570 | 38.37216 | 24771 ft | 428 kts | 100° |
| 2026-04-25 09:38 | 55.58082 | 38.42397 | 25148 ft | 426 kts | 85° |
| 2026-04-25 09:39 | 55.58482 | 38.47510 | 25503 ft | 418 kts | 67° |
| 2026-04-25 09:39 | 55.59653 | 38.52132 | 25914 ft | 409 kts | 53° |
| 2026-04-25 09:39 | 55.61133 | 38.56425 | 26304 ft | 410 kts | 52° |
| 2026-04-25 09:40 | 55.64124 | 38.65137 | 26978 ft | 418 kts | 53° |
| 2026-04-25 09:40 | 55.65600 | 38.69582 | 27342 ft | 420 kts | 53° |
| 2026-04-25 09:40 | 55.67076 | 38.74072 | 27722 ft | 422 kts | 53° |
| 2026-04-25 09:40 | 55.68552 | 38.78575 | 28084 ft | 424 kts | 53° |
| 2026-04-25 09:41 | 55.70040 | 38.83111 | 28380 ft | 427 kts | 53° |
| 2026-04-25 09:41 | 55.71539 | 38.87680 | 28712 ft | 429 kts | 53° |
| 2026-04-25 09:41 | 55.73046 | 38.92264 | 29038 ft | 430 kts | 52° |
| 2026-04-25 09:41 | 55.74810 | 38.96481 | 29308 ft | 423 kts | 40° |
| 2026-04-25 09:42 | 55.76850 | 39.00207 | 29652 ft | 421 kts | 38° |
| 2026-04-25 09:42 | 55.78927 | 39.03888 | 29920 ft | 423 kts | 38° |
| 2026-04-25 09:42 | 55.80996 | 39.07640 | 30204 ft | 426 kts | 39° |
| 2026-04-25 09:42 | 55.83046 | 39.11470 | 30476 ft | 429 kts | 39° |
| 2026-04-25 09:43 | 55.85091 | 39.15350 | 30729 ft | 431 kts | 40° |
| 2026-04-25 09:43 | 55.87150 | 39.19289 | 30799 ft | 438 kts | 40° |
| 2026-04-25 09:43 | 55.91361 | 39.27356 | 30917 ft | 451 kts | 40° |
| 2026-04-25 09:44 | 55.95786 | 39.35321 | 31091 ft | 457 kts | 36° |
| 2026-04-25 09:44 | 55.98171 | 39.39201 | 31283 ft | 458 kts | 35° |
| 2026-04-25 09:44 | 56.00501 | 39.42970 | 31566 ft | 458 kts | 36° |
| 2026-04-25 09:45 | 56.02869 | 39.46855 | 31908 ft | 456 kts | 36° |
| 2026-04-25 09:45 | 56.05164 | 39.50672 | 32155 ft | 457 kts | 36° |
| 2026-04-25 09:45 | 56.07482 | 39.54577 | 32384 ft | 459 kts | 39° |
| 2026-04-25 09:45 | 56.09519 | 39.59063 | 32616 ft | 469 kts | 50° |
| 2026-04-25 09:46 | 56.11294 | 39.63975 | 32932 ft | 470 kts | 52° |
| 2026-04-25 09:46 | 56.13003 | 39.68968 | 33158 ft | 471 kts | 52° |
| 2026-04-25 09:46 | 56.14702 | 39.73971 | 33376 ft | 471 kts | 52° |
| 2026-04-25 09:46 | 56.16384 | 39.78870 | 33588 ft | 471 kts | 52° |
| 2026-04-25 09:47 | 56.18076 | 39.83727 | 33854 ft | 470 kts | 51° |
| 2026-04-25 09:47 | 56.19787 | 39.88589 | 34111 ft | 468 kts | 51° |
| 2026-04-25 09:47 | 56.21497 | 39.93415 | 34288 ft | 469 kts | 51° |
| 2026-04-25 09:47 | 56.23252 | 39.98358 | 34509 ft | 469 kts | 51° |
| 2026-04-25 09:48 | 56.25006 | 40.03301 | 34736 ft | 468 kts | 52° |
| 2026-04-25 09:48 | 56.26755 | 40.08241 | 34881 ft | 470 kts | 52° |
| 2026-04-25 09:48 | 56.28474 | 40.13111 | 35038 ft | 471 kts | 52° |
| 2026-04-25 09:48 | 56.30253 | 40.18166 | 35272 ft | 470 kts | 52° |
| 2026-04-25 09:49 | 56.32005 | 40.23158 | 35487 ft | 469 kts | 52° |
| 2026-04-25 09:49 | 56.33740 | 40.28111 | 35669 ft | 470 kts | 52° |
| 2026-04-25 09:49 | 56.35470 | 40.33060 | 35812 ft | 470 kts | 53° |
| 2026-04-25 09:49 | 56.37214 | 40.38061 | 36003 ft | 470 kts | 53° |
| 2026-04-25 09:50 | 56.40703 | 40.48098 | 36027 ft | 468 kts | 53° |
| 2026-04-25 09:50 | 56.42400 | 40.52998 | 36010 ft | 453 kts | 53° |
| 2026-04-25 09:50 | 56.44044 | 40.57758 | 36007 ft | 440 kts | 53° |
| 2026-04-25 09:51 | 56.46837 | 40.67751 | 36101 ft | 455 kts | 69° |
| 2026-04-25 09:51 | 56.47701 | 40.73282 | 36313 ft | 457 kts | 71° |
| 2026-04-25 09:51 | 56.48509 | 40.78838 | 36467 ft | 458 kts | 71° |
| 2026-04-25 09:52 | 56.49304 | 40.84415 | 36599 ft | 458 kts | 71° |
| 2026-04-25 09:52 | 56.50108 | 40.90024 | 36641 ft | 461 kts | 71° |
| 2026-04-25 09:52 | 56.51754 | 41.01302 | 36648 ft | 467 kts | 71° |
| 2026-04-25 09:53 | 56.53441 | 41.12732 | 36646 ft | 472 kts | 71° |
| 2026-04-25 09:53 | 56.55145 | 41.24297 | 36644 ft | 478 kts | 71° |
| 2026-04-25 09:54 | 56.56850 | 41.35974 | 36642 ft | 480 kts | 71° |
| 2026-04-25 09:54 | 56.58551 | 41.47712 | 36634 ft | 481 kts | 72° |
| 2026-04-25 09:55 | 56.60240 | 41.59458 | 36623 ft | 481 kts | 72° |
| 2026-04-25 09:55 | 56.61917 | 41.71207 | 36628 ft | 480 kts | 72° |
| 2026-04-25 09:56 | 56.63575 | 41.82922 | 36623 ft | 479 kts | 72° |
| 2026-04-25 09:56 | 56.65221 | 41.94609 | 36627 ft | 477 kts | 72° |
| 2026-04-25 09:57 | 56.66854 | 42.06298 | 36628 ft | 476 kts | 72° |
| 2026-04-25 09:57 | 56.68459 | 42.17889 | 36627 ft | 475 kts | 72° |
| 2026-04-25 09:58 | 56.70059 | 42.29535 | 36615 ft | 474 kts | 72° |
| 2026-04-25 09:58 | 56.71649 | 42.41182 | 36616 ft | 474 kts | 72° |
| 2026-04-25 09:59 | 56.73229 | 42.52830 | 36621 ft | 474 kts | 72° |
| 2026-04-25 09:59 | 56.74917 | 42.64405 | 36619 ft | 472 kts | 70° |
| 2026-04-25 10:00 | 56.76829 | 42.75836 | 36615 ft | 471 kts | 69° |
| 2026-04-25 10:00 | 56.78743 | 42.87272 | 36617 ft | 471 kts | 70° |
| 2026-04-25 10:01 | 56.80610 | 42.98717 | 36621 ft | 471 kts | 70° |
| 2026-04-25 10:01 | 56.82452 | 43.10217 | 36622 ft | 472 kts | 70° |
| 2026-04-25 10:02 | 56.84279 | 43.21721 | 36616 ft | 473 kts | 70° |
| 2026-04-25 10:02 | 56.86100 | 43.33268 | 36622 ft | 473 kts | 70° |
| 2026-04-25 10:03 | 56.87915 | 43.44850 | 36623 ft | 474 kts | 71° |
| 2026-04-25 10:03 | 56.89726 | 43.56485 | 36615 ft | 477 kts | 71° |
| 2026-04-25 10:04 | 56.91227 | 43.66188 | 36603 ft | 476 kts | 71° |
| 2026-04-25 10:04 | 56.93019 | 43.77850 | 36609 ft | 476 kts | 71° |
| 2026-04-25 10:05 | 56.94801 | 43.89521 | 36612 ft | 476 kts | 71° |
| 2026-04-25 10:05 | 56.96570 | 44.01190 | 36615 ft | 476 kts | 71° |
| 2026-04-25 10:06 | 56.98333 | 44.12904 | 36614 ft | 476 kts | 71° |
| 2026-04-25 10:06 | 57.00085 | 44.24628 | 36607 ft | 477 kts | 72° |
| 2026-04-25 10:07 | 57.01827 | 44.36372 | 36604 ft | 477 kts | 72° |
| 2026-04-25 10:07 | 57.03557 | 44.48129 | 36614 ft | 477 kts | 72° |
| 2026-04-25 10:08 | 57.05276 | 44.59902 | 36601 ft | 477 kts | 72° |
| 2026-04-25 10:08 | 57.06984 | 44.71667 | 36594 ft | 477 kts | 72° |
| 2026-04-25 10:09 | 57.08682 | 44.83446 | 36586 ft | 476 kts | 72° |
| 2026-04-25 10:09 | 57.10366 | 44.95227 | 36592 ft | 476 kts | 73° |
| 2026-04-25 10:10 | 57.12037 | 45.07006 | 36584 ft | 476 kts | 73° |
| 2026-04-25 10:10 | 57.13699 | 45.18810 | 36581 ft | 476 kts | 73° |
| 2026-04-25 10:11 | 57.15352 | 45.30636 | 36579 ft | 476 kts | 73° |
| 2026-04-25 10:11 | 57.16991 | 45.42449 | 36583 ft | 476 kts | 73° |
| 2026-04-25 10:12 | 57.18618 | 45.54284 | 36567 ft | 476 kts | 73° |
| 2026-04-25 10:13 | 57.21030 | 45.71970 | 36569 ft | 476 kts | 74° |
| 2026-04-25 10:13 | 57.22643 | 45.83912 | 36574 ft | 476 kts | 74° |
| 2026-04-25 10:14 | 57.24223 | 45.95708 | 36564 ft | 477 kts | 74° |
| 2026-04-25 10:14 | 57.25805 | 46.07606 | 36562 ft | 477 kts | 75° |
| 2026-04-25 10:15 | 57.27370 | 46.19492 | 36567 ft | 477 kts | 75° |
| 2026-04-25 10:15 | 57.28929 | 46.31407 | 36552 ft | 477 kts | 75° |
| 2026-04-25 10:16 | 57.30477 | 46.43343 | 36556 ft | 477 kts | 75° |
| 2026-04-25 10:16 | 57.32012 | 46.55280 | 36555 ft | 477 kts | 75° |
| 2026-04-25 10:17 | 57.33542 | 46.67257 | 36553 ft | 478 kts | 75° |
| 2026-04-25 10:17 | 57.35206 | 46.79165 | 36540 ft | 477 kts | 67° |
| 2026-04-25 10:18 | 57.37897 | 46.90359 | 36550 ft | 476 kts | 63° |
| 2026-04-25 10:18 | 57.40695 | 47.01489 | 36549 ft | 476 kts | 64° |
| 2026-04-25 10:19 | 57.43429 | 47.12683 | 36549 ft | 476 kts | 64° |
| 2026-04-25 10:19 | 57.46102 | 47.23812 | 36546 ft | 477 kts | 65° |
| 2026-04-25 10:20 | 57.48764 | 47.34943 | 36539 ft | 477 kts | 65° |
| 2026-04-25 10:20 | 57.51441 | 47.46184 | 36531 ft | 478 kts | 65° |
| 2026-04-25 10:21 | 57.54107 | 47.57415 | 36523 ft | 482 kts | 65° |
| 2026-04-25 10:21 | 57.56770 | 47.68689 | 36522 ft | 485 kts | 65° |
| 2026-04-25 10:22 | 57.59347 | 47.79659 | 36518 ft | 486 kts | 65° |
| 2026-04-25 10:22 | 57.62057 | 47.91253 | 36513 ft | 487 kts | 65° |
| 2026-04-25 10:23 | 57.64653 | 48.02425 | 36519 ft | 486 kts | 66° |
| 2026-04-25 10:23 | 57.67336 | 48.14032 | 36510 ft | 486 kts | 66° |
| 2026-04-25 10:24 | 57.69958 | 48.25437 | 36509 ft | 485 kts | 66° |
| 2026-04-25 10:24 | 57.72559 | 48.36806 | 36513 ft | 484 kts | 66° |
| 2026-04-25 10:25 | 57.75159 | 48.48228 | 36514 ft | 484 kts | 66° |
| 2026-04-25 10:25 | 57.77756 | 48.59677 | 36504 ft | 483 kts | 66° |
| 2026-04-25 10:26 | 57.80326 | 48.71053 | 36509 ft | 483 kts | 66° |
| 2026-04-25 10:26 | 57.82924 | 48.82613 | 36504 ft | 483 kts | 67° |
| 2026-04-25 10:27 | 57.85495 | 48.94120 | 36507 ft | 483 kts | 67° |
| 2026-04-25 10:27 | 57.88064 | 49.05680 | 36502 ft | 483 kts | 67° |
| 2026-04-25 10:28 | 57.90626 | 49.17273 | 36485 ft | 484 kts | 67° |
| 2026-04-25 10:28 | 57.93208 | 49.29028 | 36493 ft | 487 kts | 68° |
| 2026-04-25 10:29 | 57.95795 | 49.40875 | 36486 ft | 490 kts | 68° |
| 2026-04-25 10:29 | 57.98382 | 49.52787 | 36485 ft | 492 kts | 68° |
| 2026-04-25 10:30 | 58.00967 | 49.64752 | 36481 ft | 493 kts | 68° |
| 2026-04-25 10:30 | 58.03540 | 49.76738 | 36468 ft | 494 kts | 68° |
| 2026-04-25 10:31 | 58.06110 | 49.88775 | 36469 ft | 494 kts | 68° |
| 2026-04-25 10:31 | 58.08652 | 50.00754 | 36468 ft | 494 kts | 69° |
| 2026-04-25 10:32 | 58.11174 | 50.12711 | 36469 ft | 494 kts | 69° |
| 2026-04-25 10:32 | 58.13687 | 50.24682 | 36467 ft | 493 kts | 69° |
| 2026-04-25 10:33 | 58.16178 | 50.36624 | 36468 ft | 493 kts | 69° |
| 2026-04-25 10:33 | 58.18632 | 50.48434 | 36468 ft | 493 kts | 69° |
| 2026-04-25 10:34 | 58.21147 | 50.60603 | 36470 ft | 493 kts | 69° |
| 2026-04-25 10:34 | 58.23630 | 50.72691 | 36469 ft | 493 kts | 69° |
| 2026-04-25 10:35 | 58.26081 | 50.84694 | 36471 ft | 493 kts | 70° |
| 2026-04-25 10:35 | 58.28517 | 50.96701 | 36470 ft | 493 kts | 70° |
| 2026-04-25 10:36 | 58.30973 | 51.08881 | 36468 ft | 494 kts | 70° |
| 2026-04-25 10:36 | 58.33425 | 51.21105 | 36470 ft | 494 kts | 70° |
| 2026-04-25 10:37 | 58.35858 | 51.33333 | 36469 ft | 494 kts | 70° |
| 2026-04-25 10:37 | 58.38271 | 51.45616 | 36469 ft | 495 kts | 71° |
| 2026-04-25 10:38 | 58.40660 | 51.57833 | 36467 ft | 496 kts | 71° |
| 2026-04-25 10:38 | 58.43109 | 51.70142 | 36466 ft | 497 kts | 69° |
| 2026-04-25 10:39 | 58.45750 | 51.82348 | 36475 ft | 497 kts | 69° |
| 2026-04-25 10:39 | 58.48384 | 51.94578 | 36467 ft | 498 kts | 69° |
| 2026-04-25 10:40 | 58.50981 | 52.06879 | 36464 ft | 499 kts | 69° |
| 2026-04-25 10:40 | 58.53534 | 52.19136 | 36473 ft | 499 kts | 70° |
| 2026-04-25 10:41 | 58.56069 | 52.31496 | 36486 ft | 499 kts | 70° |
| 2026-04-25 10:41 | 58.58588 | 52.43864 | 36505 ft | 499 kts | 70° |
| 2026-04-25 10:42 | 58.61094 | 52.56204 | 36509 ft | 493 kts | 70° |
| 2026-04-25 10:42 | 58.63550 | 52.68364 | 36493 ft | 486 kts | 70° |
| 2026-04-25 10:43 | 58.65981 | 52.80474 | 36501 ft | 489 kts | 70° |
| 2026-04-25 10:43 | 58.68450 | 52.92717 | 36521 ft | 492 kts | 70° |
| 2026-04-25 10:44 | 58.70906 | 53.04936 | 36494 ft | 489 kts | 71° |
| 2026-04-25 10:44 | 58.73337 | 53.17126 | 36492 ft | 488 kts | 71° |
| 2026-04-25 10:45 | 58.75754 | 53.29338 | 36517 ft | 491 kts | 71° |
| 2026-04-25 10:45 | 58.78184 | 53.41692 | 36520 ft | 491 kts | 71° |
| 2026-04-25 10:46 | 58.80589 | 53.53987 | 36506 ft | 489 kts | 71° |
| 2026-04-25 10:46 | 58.82974 | 53.66246 | 36509 ft | 487 kts | 71° |
| 2026-04-25 10:47 | 58.85339 | 53.78486 | 36519 ft | 486 kts | 72° |
| 2026-04-25 10:47 | 58.87609 | 53.90796 | 36511 ft | 486 kts | 74° |
| 2026-04-25 10:48 | 58.89607 | 54.03258 | 36521 ft | 486 kts | 75° |
| 2026-04-25 10:48 | 58.91570 | 54.15690 | 36530 ft | 487 kts | 75° |
| 2026-04-25 10:49 | 58.93591 | 54.28303 | 36526 ft | 488 kts | 75° |
| 2026-04-25 10:49 | 58.95593 | 54.40776 | 36528 ft | 488 kts | 75° |
| 2026-04-25 10:50 | 58.97596 | 54.53366 | 36513 ft | 490 kts | 75° |
| 2026-04-25 10:50 | 58.99270 | 54.63937 | 36506 ft | 490 kts | 75° |
| 2026-04-25 10:51 | 59.01259 | 54.76575 | 36506 ft | 490 kts | 75° |
| 2026-04-25 10:51 | 59.03249 | 54.89224 | 36506 ft | 490 kts | 76° |
| 2026-04-25 10:52 | 59.05228 | 55.01897 | 36504 ft | 490 kts | 76° |
| 2026-04-25 10:52 | 59.07184 | 55.14509 | 36507 ft | 491 kts | 76° |
| 2026-04-25 10:53 | 59.09140 | 55.27307 | 36508 ft | 491 kts | 76° |
| 2026-04-25 10:53 | 59.11060 | 55.39961 | 36505 ft | 491 kts | 76° |
| 2026-04-25 10:54 | 59.12983 | 55.52716 | 36504 ft | 491 kts | 76° |
| 2026-04-25 10:54 | 59.14895 | 55.65479 | 36509 ft | 491 kts | 76° |
| 2026-04-25 10:55 | 59.16799 | 55.78249 | 36516 ft | 491 kts | 77° |
| 2026-04-25 10:55 | 59.18695 | 55.91041 | 36515 ft | 491 kts | 77° |
| 2026-04-25 10:56 | 59.20579 | 56.03847 | 36520 ft | 491 kts | 77° |
| 2026-04-25 10:56 | 59.22452 | 56.16671 | 36525 ft | 491 kts | 77° |
| 2026-04-25 10:57 | 59.24310 | 56.29507 | 36527 ft | 491 kts | 77° |
| 2026-04-25 10:57 | 59.26154 | 56.42355 | 36525 ft | 491 kts | 77° |
| 2026-04-25 10:58 | 59.27988 | 56.55223 | 36528 ft | 491 kts | 78° |
| 2026-04-25 10:58 | 59.29811 | 56.68110 | 36526 ft | 492 kts | 78° |
| 2026-04-25 10:59 | 59.31619 | 56.81004 | 36533 ft | 491 kts | 78° |
| 2026-04-25 10:59 | 59.33415 | 56.93919 | 36535 ft | 492 kts | 78° |
| 2026-04-25 11:00 | 59.35203 | 57.06865 | 36531 ft | 492 kts | 78° |
| 2026-04-25 11:00 | 59.36900 | 57.19850 | 36529 ft | 491 kts | 80° |
| 2026-04-25 11:01 | 59.38451 | 57.32894 | 36536 ft | 491 kts | 81° |
| 2026-04-25 11:01 | 59.39990 | 57.45944 | 36530 ft | 491 kts | 81° |
| 2026-04-25 11:02 | 59.41539 | 57.59013 | 36534 ft | 492 kts | 81° |
| 2026-04-25 11:02 | 59.43080 | 57.72081 | 36530 ft | 491 kts | 81° |
| 2026-04-25 11:03 | 59.44611 | 57.85160 | 36538 ft | 491 kts | 81° |
| 2026-04-25 11:03 | 59.46112 | 57.98149 | 36536 ft | 491 kts | 81° |
| 2026-04-25 11:04 | 59.47615 | 58.11245 | 36543 ft | 491 kts | 81° |
| 2026-04-25 11:04 | 59.49108 | 58.24358 | 36542 ft | 491 kts | 81° |
| 2026-04-25 11:05 | 59.50587 | 58.37467 | 36552 ft | 491 kts | 81° |
| 2026-04-25 11:05 | 59.52054 | 58.50615 | 36563 ft | 492 kts | 82° |
| 2026-04-25 11:06 | 59.53510 | 58.63781 | 36554 ft | 492 kts | 82° |
| 2026-04-25 11:06 | 59.54954 | 58.76972 | 36550 ft | 492 kts | 82° |
| 2026-04-25 11:07 | 59.56385 | 58.90171 | 36559 ft | 492 kts | 82° |
| 2026-04-25 11:07 | 59.57803 | 59.03381 | 36568 ft | 493 kts | 82° |
| 2026-04-25 11:08 | 59.59213 | 59.16624 | 36556 ft | 493 kts | 82° |
| 2026-04-25 11:08 | 59.60626 | 59.29887 | 36569 ft | 494 kts | 82° |
| 2026-04-25 11:09 | 59.62027 | 59.43132 | 36565 ft | 493 kts | 83° |
| 2026-04-25 11:09 | 59.63412 | 59.56395 | 36569 ft | 492 kts | 83° |
| 2026-04-25 11:10 | 59.64780 | 59.69650 | 36566 ft | 492 kts | 83° |
| 2026-04-25 11:10 | 59.66135 | 59.82905 | 36573 ft | 491 kts | 83° |
| 2026-04-25 11:11 | 59.67475 | 59.96158 | 36571 ft | 491 kts | 83° |
| 2026-04-25 11:11 | 59.68798 | 60.09409 | 36572 ft | 491 kts | 83° |
| 2026-04-25 11:12 | 59.70109 | 60.22667 | 36569 ft | 491 kts | 83° |
| 2026-04-25 11:12 | 59.71408 | 60.35947 | 36582 ft | 491 kts | 84° |
| 2026-04-25 11:13 | 59.72694 | 60.49248 | 36583 ft | 492 kts | 84° |
| 2026-04-25 11:13 | 59.73966 | 60.62580 | 36580 ft | 492 kts | 84° |
| 2026-04-25 11:14 | 59.75227 | 60.75914 | 36582 ft | 492 kts | 84° |
| 2026-04-25 11:14 | 59.76478 | 60.89278 | 36583 ft | 493 kts | 84° |
| 2026-04-25 11:15 | 59.77715 | 61.02663 | 36631 ft | 493 kts | 84° |
| 2026-04-25 11:15 | 59.78939 | 61.16068 | 36639 ft | 494 kts | 84° |
| 2026-04-25 11:16 | 59.80755 | 61.36279 | 36640 ft | 497 kts | 84° |
| 2026-04-25 11:16 | 59.81952 | 61.49804 | 36643 ft | 497 kts | 85° |
| 2026-04-25 11:17 | 59.83138 | 61.63353 | 36648 ft | 498 kts | 85° |
| 2026-04-25 11:17 | 59.84310 | 61.76913 | 36661 ft | 498 kts | 85° |
| 2026-04-25 11:18 | 59.85469 | 61.90491 | 36667 ft | 498 kts | 85° |
| 2026-04-25 11:18 | 59.86606 | 62.03995 | 36663 ft | 498 kts | 85° |
| 2026-04-25 11:19 | 59.87734 | 62.17559 | 36664 ft | 498 kts | 85° |
| 2026-04-25 11:19 | 59.88851 | 62.31155 | 36667 ft | 497 kts | 85° |
| 2026-04-25 11:20 | 59.89954 | 62.44735 | 36675 ft | 498 kts | 85° |
| 2026-04-25 11:20 | 59.91058 | 62.58351 | 36661 ft | 498 kts | 85° |
| 2026-04-25 11:21 | 59.92154 | 62.71988 | 36662 ft | 498 kts | 86° |
| 2026-04-25 11:21 | 59.93233 | 62.85630 | 36674 ft | 498 kts | 86° |
| 2026-04-25 11:22 | 59.94121 | 62.96987 | 36661 ft | 499 kts | 86° |
| 2026-04-25 11:22 | 59.95352 | 63.12994 | 36663 ft | 500 kts | 86° |
| 2026-04-25 11:23 | 59.96390 | 63.26712 | 36674 ft | 500 kts | 86° |
| 2026-04-25 11:23 | 59.97411 | 63.40408 | 36669 ft | 500 kts | 86° |
| 2026-04-25 11:24 | 59.98424 | 63.54143 | 36673 ft | 500 kts | 86° |
| 2026-04-25 11:24 | 59.99422 | 63.67898 | 36669 ft | 500 kts | 87° |
| 2026-04-25 11:25 | 60.00406 | 63.81665 | 36680 ft | 500 kts | 87° |
| 2026-04-25 11:25 | 60.01372 | 63.95320 | 36681 ft | 500 kts | 86° |
| 2026-04-25 11:26 | 60.02833 | 64.09000 | 36680 ft | 504 kts | 80° |
| 2026-04-25 11:26 | 60.04571 | 64.22597 | 36676 ft | 504 kts | 80° |
| 2026-04-25 11:27 | 60.06249 | 64.36226 | 36677 ft | 504 kts | 81° |
| 2026-04-25 11:27 | 60.07584 | 64.47554 | 36681 ft | 503 kts | 81° |
| 2026-04-25 11:28 | 60.09440 | 64.63548 | 36671 ft | 503 kts | 81° |
| 2026-04-25 11:28 | 60.11017 | 64.77217 | 36671 ft | 503 kts | 81° |
| 2026-04-25 11:29 | 60.13225 | 64.90488 | 36689 ft | 509 kts | 68° |
| 2026-04-25 11:29 | 60.16309 | 65.03405 | 36677 ft | 510 kts | 67° |
| 2026-04-25 11:30 | 60.19385 | 65.16158 | 36680 ft | 510 kts | 68° |
| 2026-04-25 11:30 | 60.22415 | 65.29065 | 36682 ft | 510 kts | 68° |
| 2026-04-25 11:31 | 60.25404 | 65.42036 | 36686 ft | 511 kts | 69° |
| 2026-04-25 11:31 | 60.28372 | 65.55029 | 36695 ft | 511 kts | 69° |
| 2026-04-25 11:32 | 60.31336 | 65.68072 | 36692 ft | 512 kts | 69° |
| 2026-04-25 11:32 | 60.34294 | 65.81150 | 36698 ft | 512 kts | 69° |
| 2026-04-25 11:33 | 60.36765 | 65.92138 | 36698 ft | 513 kts | 69° |
| 2026-04-25 11:33 | 60.40201 | 66.07514 | 36699 ft | 513 kts | 69° |
| 2026-04-25 11:34 | 60.42631 | 66.18452 | 36693 ft | 513 kts | 69° |
| 2026-04-25 11:34 | 60.45497 | 66.31429 | 36696 ft | 513 kts | 69° |
| 2026-04-25 11:35 | 60.48297 | 66.44188 | 36693 ft | 513 kts | 69° |
| 2026-04-25 11:35 | 60.51183 | 66.57419 | 36698 ft | 513 kts | 69° |
| 2026-04-25 11:36 | 60.54059 | 66.70688 | 36699 ft | 513 kts | 70° |
| 2026-04-25 11:36 | 60.56919 | 66.83963 | 36704 ft | 513 kts | 69° |
| 2026-04-25 11:37 | 60.59767 | 66.97257 | 36702 ft | 513 kts | 70° |
| 2026-04-25 11:37 | 60.62594 | 67.10561 | 36702 ft | 513 kts | 70° |
| 2026-04-25 11:38 | 60.65412 | 67.23911 | 36693 ft | 513 kts | 70° |
| 2026-04-25 11:38 | 60.68222 | 67.37303 | 36690 ft | 513 kts | 70° |
| 2026-04-25 11:39 | 60.70981 | 67.50518 | 36678 ft | 507 kts | 70° |
| 2026-04-25 11:39 | 60.73710 | 67.63738 | 36687 ft | 503 kts | 70° |
| 2026-04-25 11:40 | 60.76396 | 67.76915 | 36685 ft | 501 kts | 71° |
| 2026-04-25 11:40 | 60.78764 | 67.88597 | 36692 ft | 501 kts | 71° |
| 2026-04-25 11:41 | 60.81419 | 68.01764 | 36605 ft | 503 kts | 71° |
| 2026-04-25 11:41 | 60.82756 | 68.08433 | 36040 ft | 510 kts | 71° |
| 2026-04-25 11:41 | 60.84107 | 68.15177 | 35428 ft | 509 kts | 71° |
| 2026-04-25 11:42 | 60.85452 | 68.21913 | 34758 ft | 511 kts | 71° |
| 2026-04-25 11:42 | 60.86792 | 68.28653 | 34063 ft | 513 kts | 71° |
| 2026-04-25 11:42 | 60.88147 | 68.35458 | 33306 ft | 516 kts | 71° |
| 2026-04-25 11:42 | 60.89505 | 68.42262 | 32774 ft | 513 kts | 71° |
| 2026-04-25 11:43 | 60.90854 | 68.49025 | 32283 ft | 510 kts | 71° |
| 2026-04-25 11:43 | 60.92187 | 68.55734 | 31802 ft | 506 kts | 71° |
| 2026-04-25 11:43 | 60.93508 | 68.62407 | 31321 ft | 502 kts | 71° |
| 2026-04-25 11:43 | 60.94817 | 68.69051 | 30849 ft | 499 kts | 71° |
| 2026-04-25 11:44 | 60.96110 | 68.75640 | 30378 ft | 495 kts | 71° |
| 2026-04-25 11:44 | 60.97391 | 68.82188 | 29911 ft | 492 kts | 71° |
| 2026-04-25 11:44 | 60.98660 | 68.88708 | 29445 ft | 488 kts | 71° |
| 2026-04-25 11:44 | 60.99916 | 68.95179 | 28980 ft | 485 kts | 71° |
| 2026-04-25 11:45 | 61.01165 | 69.01613 | 28499 ft | 481 kts | 71° |
| 2026-04-25 11:45 | 61.02393 | 69.08022 | 28028 ft | 483 kts | 71° |
| 2026-04-25 11:45 | 61.03587 | 69.14458 | 27526 ft | 477 kts | 76° |
| 2026-04-25 11:45 | 61.04433 | 69.21027 | 27018 ft | 471 kts | 81° |
| 2026-04-25 11:46 | 61.05138 | 69.27617 | 26548 ft | 467 kts | 83° |
| 2026-04-25 11:46 | 61.05798 | 69.34140 | 26076 ft | 463 kts | 83° |
| 2026-04-25 11:46 | 61.06459 | 69.40639 | 25615 ft | 461 kts | 83° |
| 2026-04-25 11:46 | 61.07127 | 69.47070 | 25162 ft | 456 kts | 82° |
| 2026-04-25 11:47 | 61.07806 | 69.53438 | 24687 ft | 454 kts | 81° |
| 2026-04-25 11:47 | 61.08518 | 69.59776 | 24225 ft | 450 kts | 81° |
| 2026-04-25 11:47 | 61.09210 | 69.66058 | 23773 ft | 446 kts | 81° |
| 2026-04-25 11:47 | 61.09876 | 69.72287 | 23319 ft | 442 kts | 81° |
| 2026-04-25 11:48 | 61.10532 | 69.78474 | 22865 ft | 439 kts | 82° |
| 2026-04-25 11:48 | 61.11182 | 69.84606 | 22424 ft | 433 kts | 81° |
| 2026-04-25 11:48 | 61.11801 | 69.90677 | 21974 ft | 431 kts | 82° |
| 2026-04-25 11:48 | 61.12440 | 69.96728 | 21549 ft | 431 kts | 81° |
| 2026-04-25 11:49 | 61.13081 | 70.02746 | 21087 ft | 427 kts | 81° |
| 2026-04-25 11:49 | 61.13710 | 70.08721 | 20790 ft | 420 kts | 82° |
| 2026-04-25 11:49 | 61.14293 | 70.14580 | 20468 ft | 413 kts | 83° |
| 2026-04-25 11:49 | 61.14852 | 70.20379 | 20091 ft | 409 kts | 83° |
| 2026-04-25 11:50 | 61.15403 | 70.26137 | 19684 ft | 406 kts | 83° |
| 2026-04-25 11:50 | 61.15948 | 70.31845 | 19266 ft | 403 kts | 83° |
| 2026-04-25 11:50 | 61.16490 | 70.37526 | 18850 ft | 401 kts | 83° |
| 2026-04-25 11:50 | 61.17028 | 70.43166 | 18429 ft | 398 kts | 83° |
| 2026-04-25 11:51 | 61.17563 | 70.48788 | 18000 ft | 396 kts | 83° |
| 2026-04-25 11:51 | 61.18092 | 70.54370 | 17591 ft | 394 kts | 83° |
| 2026-04-25 11:51 | 61.18612 | 70.59888 | 17176 ft | 391 kts | 83° |
| 2026-04-25 11:51 | 61.19131 | 70.65428 | 16761 ft | 390 kts | 83° |
| 2026-04-25 11:52 | 61.19642 | 70.70927 | 16337 ft | 387 kts | 83° |
| 2026-04-25 11:52 | 61.20152 | 70.76383 | 15916 ft | 384 kts | 83° |
| 2026-04-25 11:52 | 61.20648 | 70.81723 | 15529 ft | 381 kts | 83° |
| 2026-04-25 11:52 | 61.21146 | 70.87124 | 15118 ft | 379 kts | 83° |
| 2026-04-25 11:53 | 61.21637 | 70.92478 | 14726 ft | 376 kts | 83° |
| 2026-04-25 11:53 | 61.22102 | 70.97751 | 14483 ft | 368 kts | 83° |
| 2026-04-25 11:53 | 61.22540 | 71.02966 | 14124 ft | 364 kts | 84° |
| 2026-04-25 11:53 | 61.22964 | 71.08128 | 13758 ft | 361 kts | 84° |
| 2026-04-25 11:54 | 61.23383 | 71.13255 | 13378 ft | 359 kts | 84° |
| 2026-04-25 11:54 | 61.23800 | 71.18353 | 12994 ft | 357 kts | 84° |
| 2026-04-25 11:54 | 61.24623 | 71.28437 | 12225 ft | 353 kts | 84° |
| 2026-04-25 11:55 | 61.25029 | 71.33450 | 11846 ft | 350 kts | 83° |
| 2026-04-25 11:55 | 61.25429 | 71.38414 | 11458 ft | 348 kts | 83° |
| 2026-04-25 11:55 | 61.25828 | 71.43363 | 11081 ft | 345 kts | 83° |
| 2026-04-25 11:55 | 61.26222 | 71.48257 | 10710 ft | 342 kts | 83° |
| 2026-04-25 11:56 | 61.26612 | 71.53123 | 10333 ft | 340 kts | 83° |
| 2026-04-25 11:56 | 61.26992 | 71.57901 | 10163 ft | 330 kts | 84° |
| 2026-04-25 11:56 | 61.27359 | 71.62528 | 10020 ft | 320 kts | 84° |
| 2026-04-25 11:56 | 61.27715 | 71.67033 | 9884 ft | 310 kts | 84° |
| 2026-04-25 11:57 | 61.28057 | 71.71394 | 9756 ft | 301 kts | 84° |
| 2026-04-25 11:57 | 61.28387 | 71.75614 | 9736 ft | 289 kts | 84° |
| 2026-04-25 11:57 | 61.28751 | 71.79703 | 9463 ft | 287 kts | 82° |
| 2026-04-25 11:57 | 61.29136 | 71.83746 | 9217 ft | 284 kts | 82° |
| 2026-04-25 11:58 | 61.29519 | 71.87759 | 8946 ft | 281 kts | 82° |
| 2026-04-25 11:58 | 61.29895 | 71.91717 | 8677 ft | 279 kts | 82° |
| 2026-04-25 11:58 | 61.30264 | 71.95664 | 8403 ft | 277 kts | 82° |
| 2026-04-25 11:58 | 61.30628 | 71.99579 | 8132 ft | 275 kts | 83° |
| 2026-04-25 11:59 | 61.30985 | 72.03466 | 7863 ft | 273 kts | 83° |
| 2026-04-25 11:59 | 61.31337 | 72.07285 | 7590 ft | 271 kts | 83° |
| 2026-04-25 11:59 | 61.31581 | 72.11140 | 7370 ft | 266 kts | 88° |
| 2026-04-25 12:00 | 61.31836 | 72.18627 | 6846 ft | 262 kts | 90° |
| 2026-04-25 12:00 | 61.31958 | 72.22519 | 6575 ft | 260 kts | 90° |
| 2026-04-25 12:00 | 61.32200 | 72.29969 | 6051 ft | 258 kts | 89° |
| 2026-04-25 12:01 | 61.32323 | 72.33675 | 5790 ft | 256 kts | 89° |
| 2026-04-25 12:01 | 61.32447 | 72.37362 | 5525 ft | 255 kts | 89° |
| 2026-04-25 12:01 | 61.32571 | 72.41029 | 5265 ft | 253 kts | 90° |
| 2026-04-25 12:01 | 61.32695 | 72.44666 | 5002 ft | 251 kts | 90° |
| 2026-04-25 12:02 | 61.32935 | 72.51854 | 4486 ft | 247 kts | 90° |
| 2026-04-25 12:02 | 61.33054 | 72.55461 | 4228 ft | 245 kts | 90° |
| 2026-04-25 12:02 | 61.33167 | 72.58939 | 3976 ft | 243 kts | 90° |
| 2026-04-25 12:03 | 61.33282 | 72.62442 | 3730 ft | 242 kts | 90° |
| 2026-04-25 12:03 | 61.33397 | 72.65944 | 3482 ft | 240 kts | 90° |
| 2026-04-25 12:03 | 61.33509 | 72.69393 | 3237 ft | 238 kts | 90° |
| 2026-04-25 12:03 | 61.33617 | 72.72823 | 2988 ft | 237 kts | 91° |
| 2026-04-25 12:04 | 61.33726 | 72.76226 | 2740 ft | 235 kts | 90° |
| 2026-04-25 12:04 | 61.33834 | 72.79606 | 2499 ft | 232 kts | 90° |
| 2026-04-25 12:04 | 61.33938 | 72.82910 | 2303 ft | 228 kts | 90° |
| 2026-04-25 12:04 | 61.34040 | 72.86208 | 2105 ft | 225 kts | 89° |
| 2026-04-25 12:05 | 61.34140 | 72.89384 | 2049 ft | 217 kts | 89° |
| 2026-04-25 12:05 | 61.34231 | 72.92521 | 2093 ft | 217 kts | 91° |
| 2026-04-25 12:05 | 61.34261 | 72.95604 | 2054 ft | 210 kts | 91° |
| 2026-04-25 12:05 | 61.34299 | 72.98563 | 2039 ft | 198 kts | 92° |
| 2026-04-25 12:06 | 61.34304 | 73.01312 | 1966 ft | 185 kts | 93° |
| 2026-04-25 12:06 | 61.34310 | 73.03906 | 1838 ft | 174 kts | 93° |
| 2026-04-25 12:06 | 61.34310 | 73.06386 | 1818 ft | 169 kts | 93° |
| 2026-04-25 12:06 | 61.34312 | 73.08738 | 1819 ft | 155 kts | 93° |
| 2026-04-25 12:07 | 61.34313 | 73.10931 | 1804 ft | 149 kts | 92° |
| 2026-04-25 12:07 | 61.34317 | 73.13078 | 1792 ft | 148 kts | 93° |
| 2026-04-25 12:07 | 61.34321 | 73.15226 | 1804 ft | 148 kts | 93° |
| 2026-04-25 12:07 | 61.34324 | 73.17371 | 1800 ft | 149 kts | 93° |
| 2026-04-25 12:08 | 61.34328 | 73.19537 | 1795 ft | 149 kts | 93° |
| 2026-04-25 12:08 | 61.34333 | 73.21707 | 1683 ft | 152 kts | 92° |
| 2026-04-25 12:08 | 61.34337 | 73.23897 | 1493 ft | 148 kts | 91° |
| 2026-04-25 12:08 | 61.34342 | 73.26012 | 1301 ft | 143 kts | 91° |
| 2026-04-25 12:09 | 61.34348 | 73.28059 | 1108 ft | 140 kts | 90° |
| 2026-04-25 12:09 | 61.34353 | 73.30106 | 927 ft | 142 kts | 90° |
| 2026-04-25 12:09 | 61.34357 | 73.32146 | 729 ft | 143 kts | 90° |
| 2026-04-25 12:09 | 61.34368 | 73.34232 | 533 ft | 142 kts | 90° |
| 2026-04-25 12:10 | 61.34374 | 73.36289 | 340 ft | 142 kts | 90° |
| 2026-04-25 12:10 | 61.34385 | 73.38313 | 208 ft | 137 kts | 89° |
| 2026-04-25 12:10 | 61.34388 | 73.40024 | 201 ft | 90 kts | 90° |
| 2026-04-25 12:10 | 61.34389 | 73.40832 | 207 ft | 14 kts | 91° |
| 2026-04-25 12:11 | 61.34327 | 73.40948 | 208 ft | 14 kts | 177° |
| 2026-04-25 12:11 | 61.34259 | 73.40947 | 207 ft | 6 kts | 182° |
| 2026-04-25 12:11 | 61.34230 | 73.40947 | 207 ft | 0 kts | 179° |
| 2026-04-25 12:13 | 61.34226 | 73.40947 | 209 ft | 2 kts | 180° |
| 2026-04-25 12:13 | 61.34207 | 73.40942 | 213 ft | 3 kts | 195° |
| 2026-04-25 12:13 | 61.34194 | 73.40929 | 207 ft | 3 kts | 210° |
| 2026-04-25 12:14 | 61.34183 | 73.40880 | 207 ft | 3 kts | 260° |
| 2026-04-25 12:14 | 61.34181 | 73.40852 | 207 ft | 3 kts | 268° |
| 2026-04-25 12:14 | 61.34181 | 73.40809 | 207 ft | 3 kts | 270° |
| 2026-04-25 12:14 | 61.34181 | 73.40753 | 207 ft | 3 kts | 270° |
| 2026-04-25 12:15 | 61.34181 | 73.40712 | 215 ft | 3 kts | 270° |
| 2026-04-25 12:15 | 61.34181 | 73.40673 | 207 ft | 3 kts | 270° |
| 2026-04-25 12:15 | 61.34181 | 73.40648 | 207 ft | 3 kts | 270° |
| 2026-04-25 12:15 | 61.34181 | 73.40611 | 207 ft | 3 kts | 270° |
| 2026-04-25 12:16 | 61.34181 | 73.40576 | 211 ft | 2 kts | 270° |
| 2026-04-25 12:16 | 61.34181 | 73.40541 | 207 ft | 2 kts | 270° |
| 2026-04-25 12:16 | 61.34181 | 73.40508 | 207 ft | 2 kts | 270° |
| 2026-04-25 12:16 | 61.34181 | 73.40476 | 207 ft | 2 kts | 270° |
| 2026-04-25 12:17 | 61.34181 | 73.40443 | 207 ft | 3 kts | 270° |
| 2026-04-25 12:17 | 61.34179 | 73.40403 | 207 ft | 3 kts | 260° |
| 2026-04-25 12:17 | 61.34172 | 73.40369 | 212 ft | 3 kts | 236° |
| 2026-04-25 12:17 | 61.34157 | 73.40350 | 207 ft | 3 kts | 195° |
| 2026-04-25 12:18 | 61.34140 | 73.40346 | 209 ft | 2 kts | 181° |
| 2026-04-25 12:18 | 61.34123 | 73.40346 | 207 ft | 2 kts | 180° |
| 2026-04-25 12:18 | 61.34122 | 73.40346 | 214 ft | 0 kts | 180° |
| 2026-04-25 12:18 | 61.34119 | 73.40346 | 207 ft | 0 kts | 180° |